Portada
METAR-TAF:

METAR-TAF

Aeroports :

Epinal, França

latitud: 48-19-31N, longitud: 6-04-00E, altitud: 330 m

Observació

L'informe es va fer fa 16 minuts, a les 23:30 UTC
Vent 7 kt del Sud-Oest
Temperatura 2°C
Humitat 87%
Pressió 1011 hPa
Visibilitat 10 km o més
Cel ennuvolat a una alçada de 1500 ft
Cel ennuvolat a una alçada de 2300 ft
Cel cobert a una alçada de 3700 ft

METAR: LFSG 262330Z AUTO 22007KT 9999 BKN015 BKN023 OVC037 02/00 Q1011

Hora: 00:46 (23:46 UTC)


TAF: manca

Observacions i pronòstics meteorològics de més de 4000 aeroports (METAR i TAF).

Les estacions disponibles són els punts grocs i vermells al mapa.

Posi el ratolí al punt desitjat per veure el nom de l'estació.

Feu clic per veure les observacions i els pronòstics meteorològics.

Per canviar el mapa: feu clic els botons verds amb una creu de color negre per apropar; al botó verd amb un guió per allunyar la imatge; o en les fletxes verdes per a mapes adjacents.


METAR-TAF: